createdAt,value
2023-05-13T00:01:58.138Z,10.10
2023-05-13T00:04:25.110Z,8.50
2023-05-13T00:06:52.506Z,8.50
2023-05-13T00:09:19.557Z,11.20
2023-05-13T00:11:46.641Z,8.70
2023-05-13T00:14:14.913Z,15.70
2023-05-13T00:16:44.189Z,13.20
2023-05-13T00:19:12.973Z,13.00
2023-05-13T00:21:40.021Z,11.10
2023-05-13T00:24:07.523Z,12.20
2023-05-13T00:26:34.657Z,11.40
2023-05-13T00:29:01.645Z,10.20
2023-05-13T00:31:28.822Z,9.90
2023-05-13T00:33:56.502Z,10.30
2023-05-13T00:36:24.281Z,10.10
2023-05-13T00:38:51.364Z,10.50
2023-05-13T00:41:18.938Z,10.30
2023-05-13T00:43:46.058Z,9.60
2023-05-13T00:46:13.166Z,11.80
2023-05-13T00:48:40.174Z,11.30
2023-05-13T00:51:09.936Z,9.70
2023-05-13T00:53:37.878Z,10.40
2023-05-13T00:56:05.248Z,12.60
2023-05-13T00:58:32.364Z,9.80
2023-05-13T01:01:05.536Z,9.90
2023-05-13T01:03:59.444Z,10.50
2023-05-13T01:06:44.878Z,9.70
2023-05-13T01:09:18.555Z,11.00
2023-05-13T01:11:45.596Z,9.50
2023-05-13T01:14:22.313Z,10.00
2023-05-13T01:17:02.466Z,8.80
2023-05-13T01:19:43.328Z,8.60
2023-05-13T01:22:11.898Z,11.50
2023-05-13T01:24:38.923Z,9.00
2023-05-13T01:27:06.146Z,10.60
2023-05-13T01:29:33.208Z,11.10
2023-05-13T01:32:00.427Z,10.80
2023-05-13T01:34:27.654Z,10.10
2023-05-13T01:36:54.692Z,9.90
2023-05-13T01:39:22.256Z,9.90
2023-05-13T01:41:49.635Z,7.60
2023-05-13T01:44:18.057Z,10.30
2023-05-13T01:46:45.597Z,10.50
2023-05-13T01:49:13.100Z,9.10
2023-05-13T01:51:41.545Z,10.20
2023-05-13T01:54:08.815Z,8.30
2023-05-13T01:56:40.364Z,10.80
2023-05-13T01:59:10.701Z,8.50
2023-05-13T02:01:37.750Z,9.20
2023-05-13T02:04:07.354Z,8.20
2023-05-13T02:06:34.516Z,8.70
2023-05-13T02:09:01.994Z,10.80
2023-05-13T02:11:29.414Z,9.00
2023-05-13T02:13:57.631Z,10.40
2023-05-13T02:16:24.677Z,8.90
2023-05-13T02:18:51.804Z,10.50
2023-05-13T02:21:19.723Z,10.40
2023-05-13T02:23:46.946Z,9.20
2023-05-13T02:26:13.921Z,8.30
2023-05-13T02:28:40.988Z,9.30
2023-05-13T02:31:08.342Z,8.30
2023-05-13T02:33:35.852Z,9.00
2023-05-13T02:36:02.965Z,9.80
2023-05-13T02:38:30.052Z,10.00
2023-05-13T02:40:57.124Z,9.00
2023-05-13T02:43:27.699Z,10.40
2023-05-13T02:48:24.884Z,9.00
2023-05-13T02:50:53.015Z,7.20
2023-05-13T02:53:20.591Z,9.80
2023-05-13T02:55:52.590Z,7.90
2023-05-13T02:58:20.566Z,8.40
2023-05-13T03:00:47.683Z,7.70
2023-05-13T03:03:15.941Z,7.60
2023-05-13T03:05:43.199Z,7.90
2023-05-13T03:08:10.226Z,7.10
2023-05-13T03:10:38.274Z,8.90
2023-05-13T03:13:08.943Z,10.20
2023-05-13T03:15:36.371Z,7.00
2023-05-13T03:18:03.851Z,8.00
2023-05-13T03:20:31.528Z,7.50
2023-05-13T03:22:59.780Z,8.80
2023-05-13T03:25:27.807Z,8.50
2023-05-13T03:27:57.620Z,7.60
2023-05-13T03:30:26.625Z,10.40
2023-05-13T03:33:00.145Z,9.20
2023-05-13T03:35:27.520Z,10.00
2023-05-13T03:37:54.915Z,10.40
2023-05-13T03:40:22.350Z,8.60
2023-05-13T03:42:52.190Z,8.80
2023-05-13T03:45:20.668Z,8.50
2023-05-13T03:47:50.461Z,8.80
2023-05-13T03:50:18.066Z,7.50
2023-05-13T03:52:47.094Z,9.40
2023-05-13T03:55:15.669Z,6.90
2023-05-13T03:57:48.323Z,7.00
2023-05-13T04:00:17.595Z,8.30
2023-05-13T04:02:44.841Z,7.60
2023-05-13T04:05:14.211Z,6.00
2023-05-13T04:07:47.665Z,6.30
2023-05-13T04:10:15.810Z,6.70
2023-05-13T04:12:43.843Z,6.20
2023-05-13T04:15:11.076Z,6.40
2023-05-13T04:17:38.274Z,5.10
2023-05-13T04:20:07.749Z,5.10
2023-05-13T04:22:35.490Z,5.60
2023-05-13T04:25:02.853Z,6.90
2023-05-13T04:27:29.856Z,6.50
2023-05-13T04:30:09.189Z,6.50
2023-05-13T04:32:39.396Z,7.70
2023-05-13T04:35:09.966Z,5.80
2023-05-13T04:37:38.991Z,7.60
2023-05-13T04:40:11.653Z,7.00
2023-05-13T04:42:38.692Z,6.90
2023-05-13T04:45:06.425Z,5.80
2023-05-13T04:47:35.509Z,6.50
2023-05-13T04:50:02.594Z,9.20
2023-05-13T04:52:31.387Z,7.30
2023-05-13T04:54:58.513Z,9.60
2023-05-13T04:57:31.737Z,7.80
2023-05-13T04:59:59.653Z,8.00
2023-05-13T05:02:30.403Z,6.20
2023-05-13T05:04:57.670Z,7.50
2023-05-13T05:07:24.828Z,6.70
2023-05-13T05:09:52.347Z,6.90
2023-05-13T05:12:19.580Z,9.10
2023-05-13T05:14:46.582Z,5.70
2023-05-13T05:17:13.647Z,6.90
2023-05-13T05:19:41.514Z,7.50
2023-05-13T05:22:09.005Z,6.60
2023-05-13T05:24:36.006Z,4.70
2023-05-13T05:27:03.624Z,7.00
2023-05-13T05:29:30.696Z,6.90
2023-05-13T05:31:57.924Z,6.90
2023-05-13T05:34:26.796Z,5.90
2023-05-13T05:36:56.050Z,5.60
2023-05-13T05:39:23.297Z,6.60
2023-05-13T05:41:50.492Z,7.60
2023-05-13T05:44:17.741Z,6.90
2023-05-13T05:46:45.539Z,5.70
2023-05-13T05:49:13.734Z,6.80
2023-05-13T05:51:41.959Z,4.60
2023-05-13T05:54:09.160Z,5.10
2023-05-13T05:56:39.105Z,5.10
2023-05-13T05:59:06.664Z,4.50
2023-05-13T06:01:37.945Z,5.70
2023-05-13T06:04:05.786Z,3.90
2023-05-13T06:06:33.107Z,4.90
2023-05-13T06:09:00.486Z,4.50
2023-05-13T06:11:27.814Z,4.30
2023-05-13T06:13:57.745Z,3.90
2023-05-13T06:16:24.830Z,4.80
2023-05-13T06:18:52.589Z,3.80
2023-05-13T06:21:19.761Z,4.30
2023-05-13T06:23:49.442Z,6.20
2023-05-13T06:26:17.209Z,5.80
2023-05-13T06:28:44.942Z,4.10
2023-05-13T06:31:12.213Z,5.10
2023-05-13T06:33:40.624Z,3.90
2023-05-13T06:36:09.503Z,5.10
2023-05-13T06:38:37.814Z,4.50
2023-05-13T06:41:05.215Z,5.10
2023-05-13T06:43:39.175Z,3.30
2023-05-13T06:46:21.184Z,3.10
2023-05-13T06:48:52.693Z,2.90
2023-05-13T06:51:19.714Z,3.80
2023-05-13T06:53:52.637Z,3.70
2023-05-13T06:56:27.089Z,3.50
2023-05-13T06:58:56.663Z,4.00
2023-05-13T07:01:29.900Z,3.60
2023-05-13T07:03:57.682Z,3.10
2023-05-13T07:06:24.867Z,2.80
2023-05-13T07:08:52.150Z,2.30
2023-05-13T07:11:20.111Z,2.20
2023-05-13T07:15:24.682Z,2.20
2023-05-13T07:17:52.412Z,2.50
2023-05-13T07:20:23.116Z,4.30
2023-05-13T07:22:54.186Z,3.10
2023-05-13T07:25:22.222Z,4.80
2023-05-13T07:27:50.208Z,2.70
2023-05-13T07:30:18.778Z,4.70
2023-05-13T07:32:46.031Z,2.70
2023-05-13T07:35:13.197Z,2.80
2023-05-13T07:37:40.546Z,2.60
2023-05-13T07:40:08.429Z,4.40
2023-05-13T07:42:37.406Z,3.50
2023-05-13T07:45:11.303Z,2.50
2023-05-13T07:47:39.274Z,3.30
2023-05-13T07:50:07.467Z,3.60
2023-05-13T07:52:34.875Z,5.80
2023-05-13T07:55:02.734Z,3.70
2023-05-13T07:57:37.437Z,2.40
2023-05-13T08:00:07.758Z,3.50
2023-05-13T08:02:41.770Z,2.20
2023-05-13T08:05:11.965Z,2.40
2023-05-13T08:07:39.228Z,3.00
2023-05-13T08:10:10.025Z,2.50
2023-05-13T08:12:37.984Z,3.60
2023-05-13T08:20:44.055Z,3.30
2023-05-13T08:23:12.488Z,1.80
2023-05-13T08:25:43.225Z,2.10
2023-05-13T08:28:27.405Z,2.30
2023-05-13T08:30:54.601Z,2.60
2023-05-13T08:33:29.829Z,2.20
2023-05-13T08:36:29.512Z,3.70
2023-05-13T08:38:56.882Z,2.90
2023-05-13T08:41:23.932Z,1.80
2023-05-13T08:43:51.011Z,2.40
2023-05-13T08:46:18.204Z,2.30
2023-05-13T08:48:45.566Z,2.20
2023-05-13T08:51:13.381Z,3.00
2023-05-13T08:53:41.301Z,3.30
2023-05-13T08:56:08.698Z,3.30
2023-05-13T08:58:35.873Z,2.10
2023-05-13T09:01:04.603Z,2.50
2023-05-13T09:03:31.678Z,3.40
2023-05-13T09:06:01.893Z,2.60
2023-05-13T09:08:29.136Z,1.80
2023-05-13T09:10:57.108Z,2.70
2023-05-13T09:13:26.920Z,2.00
2023-05-13T09:15:54.266Z,2.70
2023-05-13T09:18:21.925Z,2.30
2023-05-13T09:20:49.273Z,2.90
2023-05-13T09:23:16.372Z,2.50
2023-05-13T09:25:43.369Z,2.10
2023-05-13T09:28:14.662Z,2.50
2023-05-13T09:30:44.530Z,4.70
2023-05-13T09:33:14.168Z,2.40
2023-05-13T09:35:54.169Z,3.30
2023-05-13T09:38:25.574Z,1.50
2023-05-13T09:40:59.367Z,2.50
2023-05-13T09:43:29.010Z,2.80
2023-05-13T09:45:57.810Z,1.70
2023-05-13T09:48:26.617Z,3.20
2023-05-13T09:50:55.862Z,3.40
2023-05-13T09:53:23.645Z,4.50
2023-05-13T09:55:53.094Z,2.30
2023-05-13T09:58:21.354Z,2.00
2023-05-13T10:00:52.888Z,2.20
2023-05-13T10:03:21.524Z,3.00
2023-05-13T10:05:51.085Z,3.00
2023-05-13T10:08:18.414Z,2.50
2023-05-13T10:10:47.011Z,2.40
2023-05-13T10:13:16.617Z,1.60
2023-05-13T10:15:54.555Z,2.60
2023-05-13T10:18:22.594Z,2.60
2023-05-13T10:20:54.271Z,4.90
2023-05-13T10:23:23.295Z,2.10
2023-05-13T10:25:51.439Z,6.30
2023-05-13T10:28:18.546Z,2.10
2023-05-13T10:30:45.863Z,2.10
2023-05-13T10:33:13.492Z,2.20
2023-05-13T10:35:48.626Z,2.30
2023-05-13T10:38:31.426Z,3.70
2023-05-13T10:41:11.006Z,3.40
2023-05-13T10:43:38.680Z,4.40
2023-05-13T10:46:08.475Z,3.20
2023-05-13T10:48:41.055Z,3.30
2023-05-13T10:51:09.205Z,2.70
2023-05-13T10:53:39.275Z,2.20
2023-05-13T10:56:08.287Z,2.30
2023-05-13T10:58:39.147Z,2.40
2023-05-13T11:01:18.125Z,2.80
2023-05-13T11:03:55.707Z,2.00
2023-05-13T11:06:24.402Z,3.70
2023-05-13T11:08:55.076Z,2.80
2023-05-13T11:11:31.201Z,2.80
2023-05-13T11:14:14.875Z,3.30
2023-05-13T11:16:52.658Z,3.10
2023-05-13T11:19:27.449Z,3.50
2023-05-13T11:21:58.761Z,2.30
2023-05-13T11:24:26.738Z,3.90
2023-05-13T11:26:58.021Z,3.70
2023-05-13T11:29:38.994Z,3.30
2023-05-13T11:32:07.213Z,2.70
2023-05-13T11:34:34.728Z,2.70
2023-05-13T11:37:05.194Z,4.90
2023-05-13T11:39:34.036Z,3.90
2023-05-13T11:42:08.455Z,3.10
2023-05-13T11:44:35.589Z,3.50
2023-05-13T11:47:06.240Z,3.30
2023-05-13T11:49:36.648Z,2.60
2023-05-13T11:52:04.746Z,2.80
2023-05-13T11:54:33.118Z,4.40
2023-05-13T11:57:00.235Z,5.30
2023-05-13T11:59:33.335Z,2.80
2023-05-13T12:02:05.892Z,2.40
2023-05-13T12:04:34.046Z,2.50
2023-05-13T12:07:01.078Z,5.70
2023-05-13T12:09:28.074Z,3.20
2023-05-13T12:11:55.119Z,2.20
2023-05-13T12:14:22.205Z,3.60
2023-05-13T12:16:49.859Z,3.80
2023-05-13T12:19:17.093Z,2.70
2023-05-13T12:21:44.753Z,3.70
2023-05-13T12:24:19.608Z,5.20
2023-05-13T12:26:46.672Z,4.50
2023-05-13T12:29:13.742Z,5.20
2023-05-13T12:31:44.378Z,2.90
2023-05-13T12:34:12.926Z,2.70
2023-05-13T12:36:40.312Z,2.40
2023-05-13T12:39:19.869Z,2.30
2023-05-13T12:41:57.656Z,1.80
2023-05-13T12:44:29.400Z,2.90
2023-05-13T12:47:01.377Z,2.00
2023-05-13T12:49:28.591Z,3.00
2023-05-13T12:51:57.012Z,3.00
2023-05-13T12:54:25.569Z,3.60
2023-05-13T12:56:52.655Z,2.60
2023-05-13T12:59:19.696Z,3.90
2023-05-13T13:01:48.376Z,2.80
2023-05-13T13:04:18.038Z,2.60
2023-05-13T13:06:45.363Z,2.20
2023-05-13T13:09:13.007Z,3.60
2023-05-13T13:11:40.309Z,6.50
2023-05-13T13:14:09.761Z,2.80
2023-05-13T13:16:36.790Z,2.90
2023-05-13T13:19:03.940Z,3.70
2023-05-13T13:21:30.947Z,4.20
2023-05-13T13:23:58.044Z,2.50
2023-05-13T13:26:38.411Z,2.50
2023-05-13T13:29:15.249Z,2.70
2023-05-13T13:34:21.009Z,2.30
2023-05-13T13:36:48.333Z,2.10
2023-05-13T13:39:15.843Z,2.20
2023-05-13T13:41:43.005Z,2.60
2023-05-13T13:44:10.305Z,2.40
2023-05-13T13:46:37.848Z,4.30
2023-05-13T13:49:13.073Z,2.30
2023-05-13T13:51:50.314Z,3.10
2023-05-13T13:54:17.646Z,2.60
2023-05-13T13:56:45.854Z,3.10
2023-05-13T13:59:13.785Z,1.60
2023-05-13T14:01:41.615Z,4.10
2023-05-13T14:04:28.090Z,3.30
2023-05-13T14:06:55.814Z,2.90
2023-05-13T14:09:22.932Z,2.40
2023-05-13T14:11:50.154Z,3.60
2023-05-13T14:14:37.315Z,3.00
2023-05-13T14:17:04.574Z,2.60
2023-05-13T14:19:31.758Z,3.60
2023-05-13T14:21:59.294Z,4.50
2023-05-13T14:24:27.859Z,2.60
2023-05-13T14:26:55.173Z,2.60
2023-05-13T14:29:22.209Z,2.00
2023-05-13T14:31:59.233Z,3.10
2023-05-13T14:34:26.342Z,3.00
2023-05-13T14:36:53.318Z,1.90
2023-05-13T14:39:22.500Z,3.10
2023-05-13T14:41:49.769Z,1.80
2023-05-13T14:44:17.035Z,2.10
2023-05-13T14:46:44.074Z,3.20
2023-05-13T14:49:11.146Z,3.50
2023-05-13T14:51:38.379Z,2.20
2023-05-13T14:54:05.652Z,3.20
2023-05-13T14:56:32.861Z,5.30
2023-05-13T14:59:02.588Z,3.50
2023-05-13T15:01:29.709Z,5.40
2023-05-13T15:04:00.967Z,5.80
2023-05-13T15:08:56.698Z,4.50
2023-05-13T15:11:27.071Z,5.00
2023-05-13T15:13:55.157Z,3.00
2023-05-13T15:16:22.828Z,2.90
2023-05-13T15:18:50.601Z,4.30
2023-05-13T15:21:18.252Z,2.70
2023-05-13T15:23:46.057Z,2.40
2023-05-13T15:26:14.068Z,4.80
2023-05-13T15:28:45.589Z,2.00
2023-05-13T15:31:13.170Z,2.30
2023-05-13T15:33:42.347Z,2.10
2023-05-13T15:36:10.771Z,3.10
2023-05-13T15:38:40.990Z,2.90
2023-05-13T15:41:08.473Z,3.10
2023-05-13T15:43:36.295Z,2.80
2023-05-13T15:46:05.152Z,6.10
2023-05-13T15:48:35.403Z,5.30
2023-05-13T15:51:08.693Z,2.60
2023-05-13T15:53:37.871Z,4.40
2023-05-13T15:56:10.027Z,3.30
2023-05-13T15:58:37.849Z,3.10
2023-05-13T16:03:50.804Z,3.10
2023-05-13T16:06:19.016Z,3.20
2023-05-13T16:08:46.522Z,2.60
2023-05-13T16:11:14.878Z,3.10
2023-05-13T16:13:43.284Z,2.90
2023-05-13T16:16:23.429Z,3.70
2023-05-13T16:18:55.162Z,4.70
2023-05-13T16:21:26.459Z,4.80
2023-05-13T16:24:01.103Z,8.10
2023-05-13T16:26:28.266Z,2.80
2023-05-13T16:28:57.949Z,2.80
2023-05-13T16:31:27.161Z,5.90
2023-05-13T16:33:57.293Z,4.10
2023-05-13T16:36:25.222Z,2.70
2023-05-13T16:38:57.548Z,4.40
2023-05-13T16:41:25.444Z,4.00
2023-05-13T16:43:57.547Z,13.90
2023-05-13T16:46:30.625Z,66.90
2023-05-13T16:49:04.695Z,24.00
2023-05-13T16:51:36.751Z,9.70
2023-05-13T16:54:07.974Z,9.70
2023-05-13T16:59:42.422Z,10.30
2023-05-13T17:02:28.836Z,19.00
2023-05-13T17:04:57.030Z,13.40
2023-05-13T17:07:26.870Z,12.60
2023-05-13T17:09:55.360Z,7.90
2023-05-13T17:12:24.121Z,8.20
2023-05-13T17:14:59.415Z,7.00
2023-05-13T17:17:33.343Z,8.30
2023-05-13T17:20:09.043Z,8.10
2023-05-13T17:22:49.677Z,6.50
2023-05-13T17:25:31.000Z,6.40
2023-05-13T17:28:04.668Z,5.50
2023-05-13T17:30:43.310Z,10.10
2023-05-13T17:33:16.022Z,20.50
2023-05-13T17:35:47.392Z,16.00
2023-05-13T17:38:28.519Z,16.80
2023-05-13T17:44:01.197Z,10.80
2023-05-13T17:50:35.476Z,9.10
2023-05-13T17:56:29.319Z,9.70
2023-05-13T17:59:16.561Z,8.80
2023-05-13T18:01:58.152Z,7.50
2023-05-13T18:05:02.057Z,6.40
2023-05-13T18:07:48.774Z,7.80
2023-05-13T18:16:18.631Z,6.30
2023-05-13T18:18:48.814Z,5.60
2023-05-13T18:21:21.846Z,6.60
2023-05-13T18:23:51.992Z,7.70
2023-05-13T18:26:21.090Z,5.10
2023-05-13T18:28:54.302Z,11.50
2023-05-13T18:31:49.424Z,20.70
2023-05-13T18:34:26.384Z,18.60
2023-05-13T18:39:55.080Z,14.50
2023-05-13T18:42:30.341Z,16.70
2023-05-13T18:45:01.566Z,15.70
2023-05-13T18:57:29.310Z,13.70
2023-05-13T19:00:12.456Z,13.20
2023-05-13T19:10:55.740Z,14.50
2023-05-13T19:14:40.586Z,15.00
2023-05-13T19:23:55.461Z,15.30
2023-05-13T19:27:55.663Z,15.80
2023-05-13T19:56:07.255Z,9.40
2023-05-13T19:59:57.240Z,12.70
2023-05-13T20:02:24.974Z,13.00
2023-05-13T20:08:15.687Z,14.30
2023-05-13T20:24:22.256Z,13.60
2023-05-13T20:26:49.228Z,14.00
2023-05-13T20:29:25.082Z,12.30
2023-05-13T20:31:54.233Z,14.30
2023-05-13T20:34:36.567Z,15.70
2023-05-13T20:37:06.391Z,18.70
2023-05-13T20:39:44.742Z,15.00
2023-05-13T20:42:12.432Z,14.60
2023-05-13T20:44:41.598Z,15.80
2023-05-13T20:47:18.392Z,16.40
2023-05-13T20:49:52.950Z,14.80
2023-05-13T20:52:20.736Z,14.20
2023-05-13T20:54:53.332Z,14.50
2023-05-13T20:57:29.912Z,11.00
2023-05-13T20:59:58.343Z,15.10
2023-05-13T21:02:30.497Z,11.80
2023-05-13T21:04:57.654Z,15.30
2023-05-13T21:07:25.414Z,14.60
2023-05-13T21:09:55.898Z,14.30
2023-05-13T21:12:26.761Z,11.50
2023-05-13T21:14:53.891Z,12.10
2023-05-13T21:17:23.361Z,10.20
2023-05-13T21:19:51.184Z,11.30
2023-05-13T21:22:20.440Z,14.20
2023-05-13T21:24:51.451Z,12.30
2023-05-13T21:27:19.843Z,11.20
2023-05-13T21:29:48.361Z,11.20
2023-05-13T21:32:19.049Z,10.10
2023-05-13T21:34:46.196Z,13.00
2023-05-13T21:37:13.409Z,15.70
2023-05-13T21:39:40.469Z,13.20
2023-05-13T21:42:07.550Z,12.40
2023-05-13T21:44:34.603Z,14.10
2023-05-13T21:47:01.751Z,16.30
2023-05-13T21:49:28.859Z,13.60
2023-05-13T21:51:56.340Z,13.50
2023-05-13T21:54:23.411Z,12.60
2023-05-13T21:56:50.541Z,14.40
2023-05-13T21:59:17.969Z,15.00
2023-05-13T22:01:45.065Z,14.70
2023-05-13T22:04:12.187Z,15.50
2023-05-13T22:06:39.264Z,24.20
2023-05-13T22:09:07.201Z,17.00
2023-05-13T22:11:34.443Z,14.80
2023-05-13T22:14:01.553Z,13.80
2023-05-13T22:16:28.676Z,12.50
2023-05-13T22:18:58.849Z,15.10
2023-05-13T22:21:26.284Z,18.90
2023-05-13T22:23:53.482Z,16.10
2023-05-13T22:26:20.473Z,15.60
2023-05-13T22:28:48.776Z,18.00
2023-05-13T22:31:17.680Z,14.60
2023-05-13T22:33:46.192Z,14.80
2023-05-13T22:36:16.294Z,12.90
2023-05-13T22:38:43.380Z,14.50
2023-05-13T22:41:11.755Z,13.80
2023-05-13T22:43:38.788Z,12.50
2023-05-13T22:46:07.408Z,13.80
2023-05-13T22:48:34.522Z,15.10
2023-05-13T22:51:01.599Z,15.00
2023-05-13T22:53:28.645Z,13.70
2023-05-13T22:55:55.869Z,12.00
2023-05-13T22:58:22.890Z,11.40
2023-05-13T23:00:50.139Z,13.80
2023-05-13T23:03:17.367Z,12.20
2023-05-13T23:05:44.496Z,12.80
2023-05-13T23:08:11.470Z,13.90
2023-05-13T23:10:38.606Z,13.80
2023-05-13T23:13:08.248Z,11.40
2023-05-13T23:15:36.945Z,11.70
2023-05-13T23:18:04.222Z,14.20
2023-05-13T23:20:31.280Z,13.10
2023-05-13T23:22:58.310Z,14.70
2023-05-13T23:25:26.056Z,13.50
2023-05-13T23:27:53.069Z,12.60
2023-05-13T23:30:20.215Z,18.20
2023-05-13T23:32:47.316Z,16.30
2023-05-13T23:35:14.449Z,12.50
2023-05-13T23:37:41.489Z,12.40
2023-05-13T23:40:09.068Z,14.30
2023-05-13T23:42:36.260Z,14.50
2023-05-13T23:45:03.594Z,11.90
2023-05-13T23:47:30.717Z,13.50
2023-05-13T23:49:58.351Z,12.10
2023-05-13T23:52:25.441Z,12.60
2023-05-13T23:54:52.485Z,12.80
2023-05-13T23:57:19.576Z,9.90
2023-05-13T23:59:46.545Z,9.60
